sensor_id;sensor_type;location;lat;lon;timestamp;P1;durP1;ratioP1;P2;durP2;ratioP2
34928;SDS011;21133;48.048;7.724;2022-10-31T00:00:40;5.77;;;3.90;;
34928;SDS011;21133;48.048;7.724;2022-10-31T00:03:06;5.50;;;4.37;;
34928;SDS011;21133;48.048;7.724;2022-10-31T00:05:32;12.60;;;5.57;;
34928;SDS011;21133;48.048;7.724;2022-10-31T00:07:58;7.20;;;4.50;;
34928;SDS011;21133;48.048;7.724;2022-10-31T00:10:24;5.90;;;4.70;;
34928;SDS011;21133;48.048;7.724;2022-10-31T00:12:50;3.90;;;3.63;;
34928;SDS011;21133;48.048;7.724;2022-10-31T00:15:16;4.43;;;3.30;;
34928;SDS011;21133;48.048;7.724;2022-10-31T00:17:42;6.97;;;3.23;;
34928;SDS011;21133;48.048;7.724;2022-10-31T00:20:09;5.90;;;4.27;;
34928;SDS011;21133;48.048;7.724;2022-10-31T00:22:35;8.30;;;3.40;;
34928;SDS011;21133;48.048;7.724;2022-10-31T00:25:00;3.13;;;3.00;;
34928;SDS011;21133;48.048;7.724;2022-10-31T00:27:26;6.57;;;3.60;;
34928;SDS011;21133;48.048;7.724;2022-10-31T00:29:52;4.17;;;3.03;;
34928;SDS011;21133;48.048;7.724;2022-10-31T00:32:20;5.17;;;2.93;;
34928;SDS011;21133;48.048;7.724;2022-10-31T00:34:46;5.30;;;3.40;;
34928;SDS011;21133;48.048;7.724;2022-10-31T00:37:12;4.93;;;3.97;;
34928;SDS011;21133;48.048;7.724;2022-10-31T00:39:38;6.20;;;3.40;;
34928;SDS011;21133;48.048;7.724;2022-10-31T00:42:04;7.23;;;3.23;;
34928;SDS011;21133;48.048;7.724;2022-10-31T00:44:30;4.73;;;3.10;;
34928;SDS011;21133;48.048;7.724;2022-10-31T00:46:56;3.50;;;3.17;;
34928;SDS011;21133;48.048;7.724;2022-10-31T00:49:21;4.50;;;2.90;;
34928;SDS011;21133;48.048;7.724;2022-10-31T00:51:47;7.33;;;3.03;;
34928;SDS011;21133;48.048;7.724;2022-10-31T00:54:13;4.03;;;3.77;;
34928;SDS011;21133;48.048;7.724;2022-10-31T00:56:39;16.40;;;3.60;;
34928;SDS011;21133;48.048;7.724;2022-10-31T00:59:05;7.60;;;3.30;;
34928;SDS011;21133;48.048;7.724;2022-10-31T01:01:31;6.93;;;3.03;;
34928;SDS011;21133;48.048;7.724;2022-10-31T01:03:57;9.33;;;3.10;;
34928;SDS011;21133;48.048;7.724;2022-10-31T01:06:23;3.33;;;3.13;;
34928;SDS011;21133;48.048;7.724;2022-10-31T01:08:49;3.00;;;2.90;;
34928;SDS011;21133;48.048;7.724;2022-10-31T01:11:16;7.23;;;3.20;;
34928;SDS011;21133;48.048;7.724;2022-10-31T01:13:43;13.70;;;2.13;;
34928;SDS011;21133;48.048;7.724;2022-10-31T01:16:10;7.40;;;2.53;;
34928;SDS011;21133;48.048;7.724;2022-10-31T01:18:36;9.23;;;3.10;;
34928;SDS011;21133;48.048;7.724;2022-10-31T01:21:04;2.33;;;2.23;;
34928;SDS011;21133;48.048;7.724;2022-10-31T01:23:30;5.17;;;3.00;;
34928;SDS011;21133;48.048;7.724;2022-10-31T01:26:03;3.20;;;2.97;;
34928;SDS011;21133;48.048;7.724;2022-10-31T01:28:30;5.60;;;2.67;;
34928;SDS011;21133;48.048;7.724;2022-10-31T01:30:59;7.83;;;2.20;;
34928;SDS011;21133;48.048;7.724;2022-10-31T01:33:25;3.07;;;2.87;;
34928;SDS011;21133;48.048;7.724;2022-10-31T01:35:51;4.53;;;2.83;;
34928;SDS011;21133;48.048;7.724;2022-10-31T01:38:17;2.63;;;2.30;;
34928;SDS011;21133;48.048;7.724;2022-10-31T01:40:43;8.93;;;2.43;;
34928;SDS011;21133;48.048;7.724;2022-10-31T01:43:11;2.87;;;2.67;;
34928;SDS011;21133;48.048;7.724;2022-10-31T01:45:38;2.43;;;2.33;;
34928;SDS011;21133;48.048;7.724;2022-10-31T01:48:04;3.33;;;2.53;;
34928;SDS011;21133;48.048;7.724;2022-10-31T01:50:31;6.93;;;2.37;;
34928;SDS011;21133;48.048;7.724;2022-10-31T01:53:00;2.73;;;2.50;;
34928;SDS011;21133;48.048;7.724;2022-10-31T01:57:53;3.40;;;2.70;;
34928;SDS011;21133;48.048;7.724;2022-10-31T02:00:19;7.00;;;2.17;;
34928;SDS011;21133;48.048;7.724;2022-10-31T02:02:46;2.03;;;1.97;;
34928;SDS011;21133;48.048;7.724;2022-10-31T02:05:16;2.07;;;1.90;;
34928;SDS011;21133;48.048;7.724;2022-10-31T02:10:08;4.90;;;2.27;;
34928;SDS011;21133;48.048;7.724;2022-10-31T02:12:34;3.40;;;1.93;;
34928;SDS011;21133;48.048;7.724;2022-10-31T02:15:03;7.87;;;2.30;;
34928;SDS011;21133;48.048;7.724;2022-10-31T02:17:30;5.80;;;1.73;;
34928;SDS011;21133;48.048;7.724;2022-10-31T02:22:26;6.00;;;2.20;;
34928;SDS011;21133;48.048;7.724;2022-10-31T02:32:21;2.27;;;2.17;;
34928;SDS011;21133;48.048;7.724;2022-10-31T02:37:42;5.50;;;2.43;;
34928;SDS011;21133;48.048;7.724;2022-10-31T02:40:16;6.37;;;2.73;;
34928;SDS011;21133;48.048;7.724;2022-10-31T02:42:48;4.57;;;3.23;;
34928;SDS011;21133;48.048;7.724;2022-10-31T02:45:29;5.53;;;2.57;;
34928;SDS011;21133;48.048;7.724;2022-10-31T02:47:58;5.70;;;4.73;;
34928;SDS011;21133;48.048;7.724;2022-10-31T02:50:27;7.50;;;2.50;;
34928;SDS011;21133;48.048;7.724;2022-10-31T02:52:55;5.43;;;2.83;;
34928;SDS011;21133;48.048;7.724;2022-10-31T02:57:50;7.87;;;2.20;;
34928;SDS011;21133;48.048;7.724;2022-10-31T03:00:18;8.53;;;2.87;;
34928;SDS011;21133;48.048;7.724;2022-10-31T03:10:25;3.13;;;1.90;;
34928;SDS011;21133;48.048;7.724;2022-10-31T03:13:02;9.17;;;3.10;;
34928;SDS011;21133;48.048;7.724;2022-10-31T03:15:32;4.70;;;3.80;;
34928;SDS011;21133;48.048;7.724;2022-10-31T03:18:00;4.50;;;2.57;;
34928;SDS011;21133;48.048;7.724;2022-10-31T03:23:27;2.87;;;2.67;;
34928;SDS011;21133;48.048;7.724;2022-10-31T03:25:54;2.57;;;1.90;;
34928;SDS011;21133;48.048;7.724;2022-10-31T03:28:23;2.50;;;2.27;;
34928;SDS011;21133;48.048;7.724;2022-10-31T03:30:50;6.40;;;2.20;;
34928;SDS011;21133;48.048;7.724;2022-10-31T03:33:19;6.27;;;2.10;;
34928;SDS011;21133;48.048;7.724;2022-10-31T03:35:48;4.73;;;2.17;;
34928;SDS011;21133;48.048;7.724;2022-10-31T03:38:15;2.53;;;2.30;;
34928;SDS011;21133;48.048;7.724;2022-10-31T03:40:42;2.27;;;1.90;;
34928;SDS011;21133;48.048;7.724;2022-10-31T03:43:10;2.40;;;1.93;;
34928;SDS011;21133;48.048;7.724;2022-10-31T03:45:40;3.13;;;2.60;;
34928;SDS011;21133;48.048;7.724;2022-10-31T03:48:07;1.40;;;1.40;;
34928;SDS011;21133;48.048;7.724;2022-10-31T03:50:41;4.70;;;1.80;;
34928;SDS011;21133;48.048;7.724;2022-10-31T03:53:13;1.60;;;1.40;;
34928;SDS011;21133;48.048;7.724;2022-10-31T03:55:47;2.10;;;1.70;;
34928;SDS011;21133;48.048;7.724;2022-10-31T03:58:20;1.53;;;1.43;;
34928;SDS011;21133;48.048;7.724;2022-10-31T04:00:46;2.53;;;2.47;;
34928;SDS011;21133;48.048;7.724;2022-10-31T04:03:14;6.43;;;3.83;;
34928;SDS011;21133;48.048;7.724;2022-10-31T04:05:42;3.10;;;2.73;;
34928;SDS011;21133;48.048;7.724;2022-10-31T04:08:09;8.13;;;2.93;;
34928;SDS011;21133;48.048;7.724;2022-10-31T04:10:37;5.20;;;1.80;;
34928;SDS011;21133;48.048;7.724;2022-10-31T04:13:07;2.20;;;2.10;;
34928;SDS011;21133;48.048;7.724;2022-10-31T04:15:34;2.40;;;1.90;;
34928;SDS011;21133;48.048;7.724;2022-10-31T04:18:01;2.97;;;2.40;;
34928;SDS011;21133;48.048;7.724;2022-10-31T04:20:30;4.73;;;1.80;;
34928;SDS011;21133;48.048;7.724;2022-10-31T04:22:56;4.37;;;2.17;;
34928;SDS011;21133;48.048;7.724;2022-10-31T04:25:22;3.07;;;2.07;;
34928;SDS011;21133;48.048;7.724;2022-10-31T04:27:48;3.33;;;3.07;;
34928;SDS011;21133;48.048;7.724;2022-10-31T04:30:14;2.07;;;1.97;;
34928;SDS011;21133;48.048;7.724;2022-10-31T04:32:40;5.03;;;3.20;;
34928;SDS011;21133;48.048;7.724;2022-10-31T04:35:06;3.63;;;2.27;;
34928;SDS011;21133;48.048;7.724;2022-10-31T04:37:32;3.90;;;2.00;;
34928;SDS011;21133;48.048;7.724;2022-10-31T04:39:58;2.43;;;2.23;;
34928;SDS011;21133;48.048;7.724;2022-10-31T04:42:24;3.27;;;2.33;;
34928;SDS011;21133;48.048;7.724;2022-10-31T04:44:50;6.13;;;2.40;;
34928;SDS011;21133;48.048;7.724;2022-10-31T04:47:16;3.07;;;2.50;;
34928;SDS011;21133;48.048;7.724;2022-10-31T04:49:42;2.00;;;1.90;;
34928;SDS011;21133;48.048;7.724;2022-10-31T04:52:08;2.77;;;2.57;;
34928;SDS011;21133;48.048;7.724;2022-10-31T04:54:34;6.00;;;2.50;;
34928;SDS011;21133;48.048;7.724;2022-10-31T04:57:00;3.97;;;2.33;;
34928;SDS011;21133;48.048;7.724;2022-10-31T04:59:26;2.10;;;2.00;;
34928;SDS011;21133;48.048;7.724;2022-10-31T05:01:52;2.83;;;2.17;;
34928;SDS011;21133;48.048;7.724;2022-10-31T05:04:18;2.60;;;2.50;;
34928;SDS011;21133;48.048;7.724;2022-10-31T05:06:44;2.13;;;1.80;;
34928;SDS011;21133;48.048;7.724;2022-10-31T05:09:10;6.60;;;2.57;;
34928;SDS011;21133;48.048;7.724;2022-10-31T05:11:36;7.57;;;2.57;;
34928;SDS011;21133;48.048;7.724;2022-10-31T05:14:02;3.23;;;2.37;;
34928;SDS011;21133;48.048;7.724;2022-10-31T05:16:28;14.53;;;1.70;;
34928;SDS011;21133;48.048;7.724;2022-10-31T05:18:54;3.13;;;2.70;;
34928;SDS011;21133;48.048;7.724;2022-10-31T05:21:20;6.70;;;2.60;;
34928;SDS011;21133;48.048;7.724;2022-10-31T05:23:46;4.00;;;1.87;;
34928;SDS011;21133;48.048;7.724;2022-10-31T05:26:12;4.77;;;2.10;;
34928;SDS011;21133;48.048;7.724;2022-10-31T05:28:38;5.00;;;2.13;;
34928;SDS011;21133;48.048;7.724;2022-10-31T05:31:04;3.70;;;2.20;;
34928;SDS011;21133;48.048;7.724;2022-10-31T05:33:30;4.00;;;1.60;;
34928;SDS011;21133;48.048;7.724;2022-10-31T05:35:56;2.40;;;2.20;;
34928;SDS011;21133;48.048;7.724;2022-10-31T05:38:21;4.83;;;1.90;;
34928;SDS011;21133;48.048;7.724;2022-10-31T05:40:47;9.23;;;2.00;;
34928;SDS011;21133;48.048;7.724;2022-10-31T05:43:13;2.97;;;2.17;;
34928;SDS011;21133;48.048;7.724;2022-10-31T05:45:39;2.57;;;2.47;;
34928;SDS011;21133;48.048;7.724;2022-10-31T05:48:05;7.10;;;1.90;;
34928;SDS011;21133;48.048;7.724;2022-10-31T05:50:31;2.13;;;2.03;;
34928;SDS011;21133;48.048;7.724;2022-10-31T05:53:00;2.00;;;1.90;;
34928;SDS011;21133;48.048;7.724;2022-10-31T05:55:27;3.90;;;3.47;;
34928;SDS011;21133;48.048;7.724;2022-10-31T05:57:53;3.07;;;2.17;;
34928;SDS011;21133;48.048;7.724;2022-10-31T06:00:19;3.40;;;1.90;;
34928;SDS011;21133;48.048;7.724;2022-10-31T06:02:45;2.70;;;2.50;;
34928;SDS011;21133;48.048;7.724;2022-10-31T06:05:12;2.37;;;2.27;;
34928;SDS011;21133;48.048;7.724;2022-10-31T06:07:38;5.57;;;2.40;;
34928;SDS011;21133;48.048;7.724;2022-10-31T06:10:05;3.60;;;1.90;;
34928;SDS011;21133;48.048;7.724;2022-10-31T06:12:31;8.97;;;2.70;;
34928;SDS011;21133;48.048;7.724;2022-10-31T06:15:02;3.73;;;2.37;;
34928;SDS011;21133;48.048;7.724;2022-10-31T06:17:28;6.03;;;2.37;;
34928;SDS011;21133;48.048;7.724;2022-10-31T06:19:54;2.30;;;2.20;;
34928;SDS011;21133;48.048;7.724;2022-10-31T06:22:20;3.80;;;2.27;;
34928;SDS011;21133;48.048;7.724;2022-10-31T06:24:46;4.20;;;2.17;;
34928;SDS011;21133;48.048;7.724;2022-10-31T06:27:12;2.43;;;2.30;;
34928;SDS011;21133;48.048;7.724;2022-10-31T06:29:38;3.17;;;2.97;;
34928;SDS011;21133;48.048;7.724;2022-10-31T06:32:04;2.80;;;2.60;;
34928;SDS011;21133;48.048;7.724;2022-10-31T06:34:30;8.40;;;3.33;;
34928;SDS011;21133;48.048;7.724;2022-10-31T06:36:56;12.30;;;2.80;;
34928;SDS011;21133;48.048;7.724;2022-10-31T06:39:22;2.80;;;2.70;;
34928;SDS011;21133;48.048;7.724;2022-10-31T06:41:48;5.00;;;4.50;;
34928;SDS011;21133;48.048;7.724;2022-10-31T06:44:14;5.23;;;3.40;;
34928;SDS011;21133;48.048;7.724;2022-10-31T06:46:40;2.87;;;2.53;;
34928;SDS011;21133;48.048;7.724;2022-10-31T06:49:06;9.43;;;2.47;;
34928;SDS011;21133;48.048;7.724;2022-10-31T06:51:31;3.77;;;2.80;;
34928;SDS011;21133;48.048;7.724;2022-10-31T06:53:57;3.70;;;2.67;;
34928;SDS011;21133;48.048;7.724;2022-10-31T06:56:23;2.43;;;2.33;;
34928;SDS011;21133;48.048;7.724;2022-10-31T06:58:49;10.10;;;3.40;;
34928;SDS011;21133;48.048;7.724;2022-10-31T07:01:15;3.00;;;2.60;;
34928;SDS011;21133;48.048;7.724;2022-10-31T07:03:41;10.37;;;3.20;;
34928;SDS011;21133;48.048;7.724;2022-10-31T07:06:07;3.10;;;3.00;;
34928;SDS011;21133;48.048;7.724;2022-10-31T07:08:33;4.37;;;4.03;;
34928;SDS011;21133;48.048;7.724;2022-10-31T07:10:59;5.10;;;4.33;;
34928;SDS011;21133;48.048;7.724;2022-10-31T07:13:25;11.23;;;4.73;;
34928;SDS011;21133;48.048;7.724;2022-10-31T07:15:52;6.73;;;5.53;;
34928;SDS011;21133;48.048;7.724;2022-10-31T07:18:18;8.03;;;5.43;;
34928;SDS011;21133;48.048;7.724;2022-10-31T07:20:45;22.47;;;10.10;;
34928;SDS011;21133;48.048;7.724;2022-10-31T07:23:11;16.30;;;9.43;;
34928;SDS011;21133;48.048;7.724;2022-10-31T07:25:37;10.53;;;8.93;;
34928;SDS011;21133;48.048;7.724;2022-10-31T07:28:03;7.00;;;6.27;;
34928;SDS011;21133;48.048;7.724;2022-10-31T07:30:30;5.00;;;4.80;;
34928;SDS011;21133;48.048;7.724;2022-10-31T07:32:56;8.20;;;4.63;;
34928;SDS011;21133;48.048;7.724;2022-10-31T07:35:26;11.03;;;4.70;;
34928;SDS011;21133;48.048;7.724;2022-10-31T07:37:52;7.10;;;3.73;;
34928;SDS011;21133;48.048;7.724;2022-10-31T07:40:18;12.90;;;4.23;;
34928;SDS011;21133;48.048;7.724;2022-10-31T07:42:46;11.57;;;5.77;;
34928;SDS011;21133;48.048;7.724;2022-10-31T07:45:14;12.77;;;5.30;;
34928;SDS011;21133;48.048;7.724;2022-10-31T07:47:44;5.97;;;3.97;;
34928;SDS011;21133;48.048;7.724;2022-10-31T07:50:12;5.97;;;4.13;;
34928;SDS011;21133;48.048;7.724;2022-10-31T07:52:38;4.30;;;3.90;;
34928;SDS011;21133;48.048;7.724;2022-10-31T07:55:04;5.33;;;4.80;;
34928;SDS011;21133;48.048;7.724;2022-10-31T07:57:31;12.70;;;8.63;;
34928;SDS011;21133;48.048;7.724;2022-10-31T07:59:57;14.13;;;5.83;;
34928;SDS011;21133;48.048;7.724;2022-10-31T08:02:23;15.40;;;7.80;;
34928;SDS011;21133;48.048;7.724;2022-10-31T08:04:49;14.03;;;7.47;;
34928;SDS011;21133;48.048;7.724;2022-10-31T08:07:15;15.47;;;8.80;;
34928;SDS011;21133;48.048;7.724;2022-10-31T08:09:41;9.23;;;6.00;;
34928;SDS011;21133;48.048;7.724;2022-10-31T08:12:07;9.43;;;5.60;;
34928;SDS011;21133;48.048;7.724;2022-10-31T08:14:33;5.80;;;5.27;;
34928;SDS011;21133;48.048;7.724;2022-10-31T08:16:59;3.57;;;3.27;;
34928;SDS011;21133;48.048;7.724;2022-10-31T08:19:25;8.57;;;5.17;;
34928;SDS011;21133;48.048;7.724;2022-10-31T08:21:51;3.90;;;3.70;;
34928;SDS011;21133;48.048;7.724;2022-10-31T08:24:19;5.27;;;4.20;;
34928;SDS011;21133;48.048;7.724;2022-10-31T08:26:45;9.07;;;4.57;;
34928;SDS011;21133;48.048;7.724;2022-10-31T08:29:11;8.63;;;3.90;;
34928;SDS011;21133;48.048;7.724;2022-10-31T08:31:38;4.90;;;4.00;;
34928;SDS011;21133;48.048;7.724;2022-10-31T08:34:04;4.67;;;4.27;;
34928;SDS011;21133;48.048;7.724;2022-10-31T08:36:30;3.73;;;3.63;;
34928;SDS011;21133;48.048;7.724;2022-10-31T08:38:56;4.33;;;3.63;;
34928;SDS011;21133;48.048;7.724;2022-10-31T08:41:22;4.23;;;3.83;;
34928;SDS011;21133;48.048;7.724;2022-10-31T08:43:48;10.17;;;4.67;;
34928;SDS011;21133;48.048;7.724;2022-10-31T08:46:14;6.43;;;4.40;;
34928;SDS011;21133;48.048;7.724;2022-10-31T08:48:40;4.10;;;3.70;;
34928;SDS011;21133;48.048;7.724;2022-10-31T08:51:06;5.30;;;4.90;;
34928;SDS011;21133;48.048;7.724;2022-10-31T08:53:32;10.43;;;4.90;;
34928;SDS011;21133;48.048;7.724;2022-10-31T08:55:58;15.33;;;4.30;;
34928;SDS011;21133;48.048;7.724;2022-10-31T08:58:24;11.40;;;5.70;;
34928;SDS011;21133;48.048;7.724;2022-10-31T09:00:51;6.23;;;5.37;;
34928;SDS011;21133;48.048;7.724;2022-10-31T09:03:20;11.33;;;7.20;;
34928;SDS011;21133;48.048;7.724;2022-10-31T09:05:46;11.33;;;5.83;;
34928;SDS011;21133;48.048;7.724;2022-10-31T09:08:12;13.43;;;6.43;;
34928;SDS011;21133;48.048;7.724;2022-10-31T09:10:39;14.23;;;6.83;;
34928;SDS011;21133;48.048;7.724;2022-10-31T09:13:07;12.47;;;5.87;;
34928;SDS011;21133;48.048;7.724;2022-10-31T09:15:34;10.03;;;6.77;;
34928;SDS011;21133;48.048;7.724;2022-10-31T09:18:00;12.87;;;5.20;;
34928;SDS011;21133;48.048;7.724;2022-10-31T09:20:26;8.40;;;5.50;;
34928;SDS011;21133;48.048;7.724;2022-10-31T09:22:56;8.80;;;5.50;;
34928;SDS011;21133;48.048;7.724;2022-10-31T09:25:23;8.63;;;5.20;;
34928;SDS011;21133;48.048;7.724;2022-10-31T09:27:48;6.27;;;5.50;;
34928;SDS011;21133;48.048;7.724;2022-10-31T09:30:14;11.67;;;6.43;;
34928;SDS011;21133;48.048;7.724;2022-10-31T09:32:40;10.87;;;6.30;;
34928;SDS011;21133;48.048;7.724;2022-10-31T09:35:06;7.87;;;5.87;;
34928;SDS011;21133;48.048;7.724;2022-10-31T09:37:33;9.20;;;5.17;;
34928;SDS011;21133;48.048;7.724;2022-10-31T09:39:59;10.70;;;6.00;;
34928;SDS011;21133;48.048;7.724;2022-10-31T09:45:07;8.03;;;5.37;;
34928;SDS011;21133;48.048;7.724;2022-10-31T09:47:42;15.03;;;5.13;;
34928;SDS011;21133;48.048;7.724;2022-10-31T09:50:13;7.53;;;4.90;;
34928;SDS011;21133;48.048;7.724;2022-10-31T09:52:51;10.47;;;4.80;;
34928;SDS011;21133;48.048;7.724;2022-10-31T09:55:36;19.53;;;5.23;;
34928;SDS011;21133;48.048;7.724;2022-10-31T09:58:02;6.23;;;5.10;;
34928;SDS011;21133;48.048;7.724;2022-10-31T10:00:29;7.50;;;4.53;;
34928;SDS011;21133;48.048;7.724;2022-10-31T10:05:54;8.43;;;5.30;;
34928;SDS011;21133;48.048;7.724;2022-10-31T10:08:26;11.67;;;5.13;;
34928;SDS011;21133;48.048;7.724;2022-10-31T10:11:06;10.17;;;5.07;;
34928;SDS011;21133;48.048;7.724;2022-10-31T10:19:34;7.27;;;6.57;;
34928;SDS011;21133;48.048;7.724;2022-10-31T10:24:17;7.07;;;5.50;;
34928;SDS011;21133;48.048;7.724;2022-10-31T10:27:05;10.00;;;6.40;;
34928;SDS011;21133;48.048;7.724;2022-10-31T10:29:47;10.95;;;7.10;;
34928;SDS011;21133;48.048;7.724;2022-10-31T10:32:23;16.90;;;8.03;;
34928;SDS011;21133;48.048;7.724;2022-10-31T10:35:00;12.80;;;8.43;;
34928;SDS011;21133;48.048;7.724;2022-10-31T10:37:32;10.53;;;6.83;;
34928;SDS011;21133;48.048;7.724;2022-10-31T10:40:07;11.87;;;5.90;;
34928;SDS011;21133;48.048;7.724;2022-10-31T10:42:34;8.60;;;5.97;;
34928;SDS011;21133;48.048;7.724;2022-10-31T10:45:19;12.10;;;5.23;;
34928;SDS011;21133;48.048;7.724;2022-10-31T10:48:14;5.87;;;5.37;;
34928;SDS011;21133;48.048;7.724;2022-10-31T10:50:47;14.67;;;5.63;;
34928;SDS011;21133;48.048;7.724;2022-10-31T10:58:29;14.30;;;6.17;;
34928;SDS011;21133;48.048;7.724;2022-10-31T11:00:55;16.63;;;6.73;;
34928;SDS011;21133;48.048;7.724;2022-10-31T11:03:21;7.43;;;6.53;;
34928;SDS011;21133;48.048;7.724;2022-10-31T11:05:51;7.57;;;5.80;;
34928;SDS011;21133;48.048;7.724;2022-10-31T11:10:58;12.17;;;6.93;;
34928;SDS011;21133;48.048;7.724;2022-10-31T11:13:24;11.50;;;7.80;;
34928;SDS011;21133;48.048;7.724;2022-10-31T11:16:04;14.57;;;7.50;;
34928;SDS011;21133;48.048;7.724;2022-10-31T11:18:33;14.60;;;7.87;;
34928;SDS011;21133;48.048;7.724;2022-10-31T11:21:00;13.03;;;7.97;;
34928;SDS011;21133;48.048;7.724;2022-10-31T11:23:28;14.00;;;7.07;;
34928;SDS011;21133;48.048;7.724;2022-10-31T11:26:01;17.33;;;7.20;;
34928;SDS011;21133;48.048;7.724;2022-10-31T11:28:28;13.27;;;6.87;;
34928;SDS011;21133;48.048;7.724;2022-10-31T11:30:58;13.90;;;8.03;;
34928;SDS011;21133;48.048;7.724;2022-10-31T11:33:29;18.00;;;7.43;;
34928;SDS011;21133;48.048;7.724;2022-10-31T11:35:56;13.70;;;7.73;;
34928;SDS011;21133;48.048;7.724;2022-10-31T11:38:24;24.40;;;9.00;;
34928;SDS011;21133;48.048;7.724;2022-10-31T11:41:04;14.20;;;8.00;;
34928;SDS011;21133;48.048;7.724;2022-10-31T11:43:31;8.10;;;6.10;;
34928;SDS011;21133;48.048;7.724;2022-10-31T11:45:57;17.30;;;10.30;;
34928;SDS011;21133;48.048;7.724;2022-10-31T11:48:23;11.23;;;7.43;;
34928;SDS011;21133;48.048;7.724;2022-10-31T11:50:56;13.60;;;7.60;;
34928;SDS011;21133;48.048;7.724;2022-10-31T11:56:03;11.60;;;7.40;;
34928;SDS011;21133;48.048;7.724;2022-10-31T11:58:30;15.77;;;7.10;;
34928;SDS011;21133;48.048;7.724;2022-10-31T12:00:56;7.80;;;6.73;;
34928;SDS011;21133;48.048;7.724;2022-10-31T12:05:51;7.90;;;7.10;;
34928;SDS011;21133;48.048;7.724;2022-10-31T12:08:17;11.90;;;7.13;;
34928;SDS011;21133;48.048;7.724;2022-10-31T12:10:51;13.33;;;6.53;;
34928;SDS011;21133;48.048;7.724;2022-10-31T12:15:55;14.97;;;7.47;;
34928;SDS011;21133;48.048;7.724;2022-10-31T12:18:40;11.50;;;6.50;;
34928;SDS011;21133;48.048;7.724;2022-10-31T12:21:13;6.93;;;6.33;;
34928;SDS011;21133;48.048;7.724;2022-10-31T12:26:18;12.80;;;6.67;;
34928;SDS011;21133;48.048;7.724;2022-10-31T12:29:02;10.17;;;6.60;;
34928;SDS011;21133;48.048;7.724;2022-10-31T12:31:48;7.97;;;5.90;;
34928;SDS011;21133;48.048;7.724;2022-10-31T12:39:25;17.30;;;6.10;;
34928;SDS011;21133;48.048;7.724;2022-10-31T12:44:46;16.97;;;10.77;;
34928;SDS011;21133;48.048;7.724;2022-10-31T12:49:46;20.70;;;12.30;;
34928;SDS011;21133;48.048;7.724;2022-10-31T12:52:26;15.43;;;8.77;;
34928;SDS011;21133;48.048;7.724;2022-10-31T13:00:14;6.67;;;4.93;;
34928;SDS011;21133;48.048;7.724;2022-10-31T13:02:46;12.87;;;5.60;;
34928;SDS011;21133;48.048;7.724;2022-10-31T13:07:52;5.93;;;4.47;;
34928;SDS011;21133;48.048;7.724;2022-10-31T13:10:25;5.93;;;4.13;;
34928;SDS011;21133;48.048;7.724;2022-10-31T13:12:53;39.23;;;16.60;;
34928;SDS011;21133;48.048;7.724;2022-10-31T13:15:24;5.67;;;4.50;;
34928;SDS011;21133;48.048;7.724;2022-10-31T13:17:59;4.87;;;4.43;;
34928;SDS011;21133;48.048;7.724;2022-10-31T13:23:12;4.90;;;4.00;;
34928;SDS011;21133;48.048;7.724;2022-10-31T13:25:44;5.40;;;4.70;;
34928;SDS011;21133;48.048;7.724;2022-10-31T13:28:25;10.10;;;5.37;;
34928;SDS011;21133;48.048;7.724;2022-10-31T13:30:52;8.27;;;4.50;;
34928;SDS011;21133;48.048;7.724;2022-10-31T13:33:26;10.83;;;5.47;;
34928;SDS011;21133;48.048;7.724;2022-10-31T13:38:59;2.30;;;2.30;;
34928;SDS011;21133;48.048;7.724;2022-10-31T13:41:34;8.63;;;4.73;;
34928;SDS011;21133;48.048;7.724;2022-10-31T13:44:05;4.37;;;4.00;;
34928;SDS011;21133;48.048;7.724;2022-10-31T13:46:38;7.97;;;4.80;;
34928;SDS011;21133;48.048;7.724;2022-10-31T13:49:18;2.87;;;2.80;;
34928;SDS011;21133;48.048;7.724;2022-10-31T13:51:47;10.17;;;4.47;;
34928;SDS011;21133;48.048;7.724;2022-10-31T13:54:30;8.83;;;4.87;;
34928;SDS011;21133;48.048;7.724;2022-10-31T13:56:57;8.00;;;5.10;;
34928;SDS011;21133;48.048;7.724;2022-10-31T13:59:23;3.53;;;3.23;;
34928;SDS011;21133;48.048;7.724;2022-10-31T14:02:00;9.57;;;4.80;;
34928;SDS011;21133;48.048;7.724;2022-10-31T14:04:28;37.30;;;4.73;;
34928;SDS011;21133;48.048;7.724;2022-10-31T14:09:37;8.83;;;5.00;;
34928;SDS011;21133;48.048;7.724;2022-10-31T14:12:24;5.33;;;4.20;;
34928;SDS011;21133;48.048;7.724;2022-10-31T14:14:52;14.43;;;5.00;;
34928;SDS011;21133;48.048;7.724;2022-10-31T14:17:21;4.87;;;4.40;;
34928;SDS011;21133;48.048;7.724;2022-10-31T14:20:02;7.53;;;4.50;;
34928;SDS011;21133;48.048;7.724;2022-10-31T14:22:29;4.40;;;4.00;;
34928;SDS011;21133;48.048;7.724;2022-10-31T14:24:55;5.47;;;4.97;;
34928;SDS011;21133;48.048;7.724;2022-10-31T14:29:53;15.83;;;6.00;;
34928;SDS011;21133;48.048;7.724;2022-10-31T14:32:23;14.20;;;6.30;;
34928;SDS011;21133;48.048;7.724;2022-10-31T14:39:52;14.53;;;5.40;;
34928;SDS011;21133;48.048;7.724;2022-10-31T14:53:19;8.23;;;4.90;;
34928;SDS011;21133;48.048;7.724;2022-10-31T14:55:50;14.70;;;5.20;;
34928;SDS011;21133;48.048;7.724;2022-10-31T14:58:18;8.83;;;5.30;;
34928;SDS011;21133;48.048;7.724;2022-10-31T15:00:46;9.53;;;5.63;;
34928;SDS011;21133;48.048;7.724;2022-10-31T15:03:14;5.20;;;4.70;;
34928;SDS011;21133;48.048;7.724;2022-10-31T15:05:42;5.07;;;4.40;;
34928;SDS011;21133;48.048;7.724;2022-10-31T15:08:26;5.90;;;3.60;;
34928;SDS011;21133;48.048;7.724;2022-10-31T15:10:52;5.87;;;4.40;;
34928;SDS011;21133;48.048;7.724;2022-10-31T15:13:19;9.47;;;4.10;;
34928;SDS011;21133;48.048;7.724;2022-10-31T15:15:46;5.77;;;4.47;;
34928;SDS011;21133;48.048;7.724;2022-10-31T15:18:16;15.07;;;4.97;;
34928;SDS011;21133;48.048;7.724;2022-10-31T15:20:43;6.57;;;5.27;;
34928;SDS011;21133;48.048;7.724;2022-10-31T15:23:10;13.30;;;5.77;;
34928;SDS011;21133;48.048;7.724;2022-10-31T15:25:36;9.03;;;6.20;;
34928;SDS011;21133;48.048;7.724;2022-10-31T15:28:12;22.60;;;6.07;;
34928;SDS011;21133;48.048;7.724;2022-10-31T15:30:38;16.10;;;5.17;;
34928;SDS011;21133;48.048;7.724;2022-10-31T15:33:15;13.57;;;4.63;;
34928;SDS011;21133;48.048;7.724;2022-10-31T15:35:53;8.13;;;5.20;;
34928;SDS011;21133;48.048;7.724;2022-10-31T15:38:20;4.60;;;4.27;;
34928;SDS011;21133;48.048;7.724;2022-10-31T15:43:27;4.67;;;4.20;;
34928;SDS011;21133;48.048;7.724;2022-10-31T15:45:55;12.57;;;6.70;;
34928;SDS011;21133;48.048;7.724;2022-10-31T15:48:22;10.47;;;7.03;;
34928;SDS011;21133;48.048;7.724;2022-10-31T15:50:50;11.00;;;6.90;;
34928;SDS011;21133;48.048;7.724;2022-10-31T15:53:22;11.53;;;5.10;;
34928;SDS011;21133;48.048;7.724;2022-10-31T15:55:53;8.73;;;7.00;;
34928;SDS011;21133;48.048;7.724;2022-10-31T15:58:20;6.00;;;5.50;;
34928;SDS011;21133;48.048;7.724;2022-10-31T16:00:56;7.43;;;6.57;;
34928;SDS011;21133;48.048;7.724;2022-10-31T16:03:24;8.00;;;5.87;;
34928;SDS011;21133;48.048;7.724;2022-10-31T16:05:55;7.43;;;6.60;;
34928;SDS011;21133;48.048;7.724;2022-10-31T16:10:56;12.77;;;5.27;;
34928;SDS011;21133;48.048;7.724;2022-10-31T16:13:28;11.20;;;5.10;;
34928;SDS011;21133;48.048;7.724;2022-10-31T16:15:56;13.23;;;5.30;;
34928;SDS011;21133;48.048;7.724;2022-10-31T16:18:23;7.20;;;4.80;;
34928;SDS011;21133;48.048;7.724;2022-10-31T16:20:51;8.40;;;3.90;;
34928;SDS011;21133;48.048;7.724;2022-10-31T16:23:18;8.70;;;4.90;;
34928;SDS011;21133;48.048;7.724;2022-10-31T16:25:45;7.43;;;4.77;;
34928;SDS011;21133;48.048;7.724;2022-10-31T16:28:16;5.50;;;5.00;;
34928;SDS011;21133;48.048;7.724;2022-10-31T16:30:44;7.27;;;5.90;;
34928;SDS011;21133;48.048;7.724;2022-10-31T16:33:32;5.23;;;4.73;;
34928;SDS011;21133;48.048;7.724;2022-10-31T16:36:00;11.40;;;4.63;;
34928;SDS011;21133;48.048;7.724;2022-10-31T16:38:27;18.63;;;6.87;;
34928;SDS011;21133;48.048;7.724;2022-10-31T16:40:53;12.47;;;5.87;;
34928;SDS011;21133;48.048;7.724;2022-10-31T16:43:19;19.93;;;5.57;;